FGKUF LFMD-LFPB
Flight info
| Callsign | FGKUF |
|---|---|
| Flight time | N/A |
| Altitude | 18000 |
| Route | PERUS A3 MOU |
| Aircraft | TBM9/L-SDFGRWY/S |
Departure
| Time | 2026-04-24 17:03 |
|---|---|
| Airport | Cannes Mandelieu Airport (LFMD) |
Arrival
| Time | N/A |
|---|---|
| Airport | Paris-Le Bourget International Airport (LFPB) |
| Time | Latitude | Longitude | Altitude | Speed | Heading |
|---|---|---|---|---|---|
| 2026-04-24 16:47 | 43.54644 | 6.95369 | 13 ft | 0 kts | 83° |
| 2026-04-24 16:57 | 43.54644 | 6.95371 | 13 ft | 0 kts | 92° |
| 2026-04-24 16:58 | 43.54639 | 6.95328 | 13 ft | 12 kts | 280° |
| 2026-04-24 16:58 | 43.54694 | 6.95274 | 13 ft | 12 kts | 354° |
| 2026-04-24 16:59 | 43.54784 | 6.95258 | 14 ft | 14 kts | 349° |
| 2026-04-24 16:59 | 43.54883 | 6.95236 | 14 ft | 15 kts | 352° |
| 2026-04-24 16:59 | 43.54992 | 6.95219 | 15 ft | 0 kts | 352° |
| 2026-04-24 17:00 | 43.55047 | 6.95210 | 15 ft | 22 kts | 352° |
| 2026-04-24 17:00 | 43.55239 | 6.95177 | 16 ft | 29 kts | 352° |
| 2026-04-24 17:01 | 43.55391 | 6.95109 | 17 ft | 0 kts | 278° |
| 2026-04-24 17:02 | 43.55391 | 6.95057 | 17 ft | 13 kts | 263° |
| 2026-04-24 17:02 | 43.55327 | 6.94993 | 17 ft | 15 kts | 172° |
| 2026-04-24 17:03 | 43.54618 | 6.95113 | 67 ft | 101 kts | 172° |
| 2026-04-24 17:03 | 43.53859 | 6.95240 | 456 ft | 116 kts | 172° |
| 2026-04-24 17:03 | 43.53113 | 6.95628 | 1017 ft | 112 kts | 150° |
| 2026-04-24 17:04 | 43.52399 | 6.96115 | 1432 ft | 121 kts | 158° |
| 2026-04-24 17:04 | 43.50761 | 6.97139 | 2235 ft | 143 kts | 160° |
| 2026-04-24 17:04 | 43.49841 | 6.97777 | 2602 ft | 155 kts | 139° |
| 2026-04-24 17:05 | 43.49397 | 6.99133 | 2967 ft | 164 kts | 94° |
| 2026-04-24 17:05 | 43.49312 | 7.00734 | 3376 ft | 170 kts | 94° |
| 2026-04-24 17:05 | 43.49157 | 7.03922 | 4426 ft | 165 kts | 93° |
| 2026-04-24 17:06 | 43.49071 | 7.05483 | 4972 ft | 162 kts | 93° |
| 2026-04-24 17:06 | 43.49201 | 7.08485 | 5996 ft | 157 kts | 53° |
| 2026-04-24 17:06 | 43.50117 | 7.09189 | 6493 ft | 155 kts | 4° |
| 2026-04-24 17:07 | 43.50820 | 7.09024 | 6818 ft | 155 kts | 344° |
| 2026-04-24 17:07 | 43.52183 | 7.08380 | 7485 ft | 154 kts | 343° |
| 2026-04-24 17:07 | 43.54189 | 7.07382 | 8472 ft | 153 kts | 343° |
| 2026-04-24 17:08 | 43.56185 | 7.06327 | 9481 ft | 154 kts | 343° |
| 2026-04-24 17:08 | 43.57168 | 7.05785 | 9987 ft | 149 kts | 343° |
| 2026-04-24 17:08 | 43.58103 | 7.05251 | 10383 ft | 143 kts | 343° |
| 2026-04-24 17:09 | 43.59804 | 7.03847 | 11098 ft | 142 kts | 334° |
| 2026-04-24 17:09 | 43.61463 | 7.02435 | 11760 ft | 141 kts | 334° |
| 2026-04-24 17:10 | 43.62311 | 7.01721 | 12092 ft | 141 kts | 334° |
| 2026-04-24 17:10 | 43.64825 | 6.99590 | 13182 ft | 141 kts | 332° |
| 2026-04-24 17:11 | 43.67089 | 6.96626 | 14128 ft | 173 kts | 349° |
| 2026-04-24 17:12 | 43.72853 | 6.92839 | 16311 ft | 188 kts | 333° |